sensor_id;sensor_type;location;lat;lon;timestamp;P1;durP1;ratioP1;P2;durP2;ratioP2
47155;SDS011;32908;52.344;16.858;2023-05-16T00:01:35;10.80;;;9.70;;
47155;SDS011;32908;52.344;16.858;2023-05-16T00:04:03;11.80;;;10.30;;
47155;SDS011;32908;52.344;16.858;2023-05-16T00:06:31;11.00;;;9.90;;
47155;SDS011;32908;52.344;16.858;2023-05-16T00:09:00;12.10;;;9.60;;
47155;SDS011;32908;52.344;16.858;2023-05-16T00:11:27;11.20;;;9.60;;
47155;SDS011;32908;52.344;16.858;2023-05-16T00:13:56;10.60;;;9.60;;
47155;SDS011;32908;52.344;16.858;2023-05-16T00:16:24;10.90;;;9.50;;
47155;SDS011;32908;52.344;16.858;2023-05-16T00:18:54;10.90;;;9.40;;
47155;SDS011;32908;52.344;16.858;2023-05-16T00:21:23;10.40;;;9.20;;
47155;SDS011;32908;52.344;16.858;2023-05-16T00:23:51;11.70;;;9.30;;
47155;SDS011;32908;52.344;16.858;2023-05-16T00:26:19;10.00;;;8.60;;
47155;SDS011;32908;52.344;16.858;2023-05-16T00:28:47;10.30;;;9.20;;
47155;SDS011;32908;52.344;16.858;2023-05-16T00:31:15;13.20;;;8.80;;
47155;SDS011;32908;52.344;16.858;2023-05-16T00:33:43;10.40;;;9.30;;
47155;SDS011;32908;52.344;16.858;2023-05-16T00:36:11;10.80;;;9.50;;
47155;SDS011;32908;52.344;16.858;2023-05-16T00:38:39;11.70;;;9.80;;
47155;SDS011;32908;52.344;16.858;2023-05-16T00:41:07;9.50;;;8.60;;
47155;SDS011;32908;52.344;16.858;2023-05-16T00:43:35;9.80;;;8.80;;
47155;SDS011;32908;52.344;16.858;2023-05-16T00:46:04;12.30;;;9.10;;
47155;SDS011;32908;52.344;16.858;2023-05-16T00:48:32;10.10;;;9.20;;
47155;SDS011;32908;52.344;16.858;2023-05-16T00:51:00;11.10;;;9.20;;
47155;SDS011;32908;52.344;16.858;2023-05-16T00:53:29;10.60;;;8.40;;
47155;SDS011;32908;52.344;16.858;2023-05-16T00:55:57;9.80;;;8.80;;
47155;SDS011;32908;52.344;16.858;2023-05-16T00:58:25;9.20;;;8.20;;
47155;SDS011;32908;52.344;16.858;2023-05-16T01:00:54;9.70;;;8.70;;
47155;SDS011;32908;52.344;16.858;2023-05-16T01:03:22;11.80;;;8.50;;
47155;SDS011;32908;52.344;16.858;2023-05-16T01:05:51;9.00;;;8.20;;
47155;SDS011;32908;52.344;16.858;2023-05-16T01:08:19;10.10;;;8.90;;
47155;SDS011;32908;52.344;16.858;2023-05-16T01:10:48;9.60;;;8.60;;
47155;SDS011;32908;52.344;16.858;2023-05-16T01:13:29;9.60;;;8.60;;
47155;SDS011;32908;52.344;16.858;2023-05-16T01:16:01;11.20;;;9.40;;
47155;SDS011;32908;52.344;16.858;2023-05-16T01:18:36;9.50;;;8.50;;
47155;SDS011;32908;52.344;16.858;2023-05-16T01:21:09;13.00;;;8.80;;
47155;SDS011;32908;52.344;16.858;2023-05-16T01:23:48;9.40;;;8.40;;
47155;SDS011;32908;52.344;16.858;2023-05-16T01:26:20;9.70;;;8.60;;
47155;SDS011;32908;52.344;16.858;2023-05-16T01:28:49;9.10;;;8.10;;
47155;SDS011;32908;52.344;16.858;2023-05-16T01:31:17;9.60;;;8.20;;
47155;SDS011;32908;52.344;16.858;2023-05-16T01:33:46;10.50;;;8.20;;
47155;SDS011;32908;52.344;16.858;2023-05-16T01:36:18;8.90;;;8.00;;
47155;SDS011;32908;52.344;16.858;2023-05-16T01:38:53;9.20;;;8.20;;
47155;SDS011;32908;52.344;16.858;2023-05-16T01:41:28;10.50;;;8.40;;
47155;SDS011;32908;52.344;16.858;2023-05-16T01:44:01;11.50;;;8.30;;
47155;SDS011;32908;52.344;16.858;2023-05-16T01:46:36;9.30;;;8.20;;
47155;SDS011;32908;52.344;16.858;2023-05-16T01:49:08;11.70;;;7.70;;
47155;SDS011;32908;52.344;16.858;2023-05-16T01:51:42;10.50;;;7.30;;
47155;SDS011;32908;52.344;16.858;2023-05-16T01:54:20;8.10;;;7.30;;
47155;SDS011;32908;52.344;16.858;2023-05-16T01:56:50;8.00;;;7.20;;
47155;SDS011;32908;52.344;16.858;2023-05-16T01:59:19;8.80;;;7.30;;
47155;SDS011;32908;52.344;16.858;2023-05-16T02:01:48;8.30;;;7.40;;
47155;SDS011;32908;52.344;16.858;2023-05-16T02:04:16;10.10;;;7.60;;
47155;SDS011;32908;52.344;16.858;2023-05-16T02:06:45;8.60;;;7.70;;
47155;SDS011;32908;52.344;16.858;2023-05-16T02:09:13;10.10;;;7.30;;
47155;SDS011;32908;52.344;16.858;2023-05-16T02:11:41;11.80;;;7.80;;
47155;SDS011;32908;52.344;16.858;2023-05-16T02:14:09;9.10;;;8.10;;
47155;SDS011;32908;52.344;16.858;2023-05-16T02:16:37;7.50;;;6.80;;
47155;SDS011;32908;52.344;16.858;2023-05-16T02:19:05;9.10;;;7.20;;
47155;SDS011;32908;52.344;16.858;2023-05-16T02:21:33;9.70;;;8.00;;
47155;SDS011;32908;52.344;16.858;2023-05-16T02:24:01;9.60;;;8.20;;
47155;SDS011;32908;52.344;16.858;2023-05-16T02:26:30;8.50;;;7.60;;
47155;SDS011;32908;52.344;16.858;2023-05-16T02:28:58;8.10;;;7.30;;
47155;SDS011;32908;52.344;16.858;2023-05-16T02:31:26;8.30;;;7.40;;
47155;SDS011;32908;52.344;16.858;2023-05-16T02:33:54;9.20;;;7.70;;
47155;SDS011;32908;52.344;16.858;2023-05-16T02:36:23;11.60;;;7.90;;
47155;SDS011;32908;52.344;16.858;2023-05-16T02:38:52;11.20;;;8.90;;
47155;SDS011;32908;52.344;16.858;2023-05-16T02:41:20;12.20;;;8.60;;
47155;SDS011;32908;52.344;16.858;2023-05-16T02:43:48;9.20;;;8.00;;
47155;SDS011;32908;52.344;16.858;2023-05-16T02:46:19;10.10;;;8.20;;
47155;SDS011;32908;52.344;16.858;2023-05-16T02:48:48;11.50;;;10.40;;
47155;SDS011;32908;52.344;16.858;2023-05-16T02:51:16;10.80;;;9.20;;
47155;SDS011;32908;52.344;16.858;2023-05-16T02:53:44;9.30;;;8.30;;
47155;SDS011;32908;52.344;16.858;2023-05-16T02:56:12;10.80;;;8.40;;
47155;SDS011;32908;52.344;16.858;2023-05-16T02:58:40;8.90;;;7.80;;
47155;SDS011;32908;52.344;16.858;2023-05-16T03:01:08;9.40;;;7.60;;
47155;SDS011;32908;52.344;16.858;2023-05-16T03:03:36;8.70;;;7.80;;
47155;SDS011;32908;52.344;16.858;2023-05-16T03:06:05;9.30;;;7.80;;
47155;SDS011;32908;52.344;16.858;2023-05-16T03:08:33;7.90;;;7.20;;
47155;SDS011;32908;52.344;16.858;2023-05-16T03:11:01;9.50;;;7.80;;
47155;SDS011;32908;52.344;16.858;2023-05-16T03:13:29;8.20;;;7.40;;
47155;SDS011;32908;52.344;16.858;2023-05-16T03:15:58;9.80;;;7.50;;
47155;SDS011;32908;52.344;16.858;2023-05-16T03:18:26;8.70;;;7.80;;
47155;SDS011;32908;52.344;16.858;2023-05-16T03:20:54;8.80;;;7.90;;
47155;SDS011;32908;52.344;16.858;2023-05-16T03:23:22;11.90;;;8.90;;
47155;SDS011;32908;52.344;16.858;2023-05-16T03:25:50;9.70;;;8.20;;
47155;SDS011;32908;52.344;16.858;2023-05-16T03:28:21;9.00;;;7.90;;
47155;SDS011;32908;52.344;16.858;2023-05-16T03:30:49;11.70;;;7.80;;
47155;SDS011;32908;52.344;16.858;2023-05-16T03:33:17;8.60;;;7.70;;
47155;SDS011;32908;52.344;16.858;2023-05-16T03:35:44;11.40;;;8.30;;
47155;SDS011;32908;52.344;16.858;2023-05-16T03:38:13;9.20;;;7.90;;
47155;SDS011;32908;52.344;16.858;2023-05-16T03:40:41;9.50;;;7.90;;
47155;SDS011;32908;52.344;16.858;2023-05-16T03:43:09;9.00;;;7.20;;
47155;SDS011;32908;52.344;16.858;2023-05-16T03:45:37;8.40;;;7.60;;
47155;SDS011;32908;52.344;16.858;2023-05-16T03:48:05;8.70;;;7.80;;
47155;SDS011;32908;52.344;16.858;2023-05-16T03:50:35;7.90;;;7.20;;
47155;SDS011;32908;52.344;16.858;2023-05-16T03:53:03;10.80;;;7.00;;
47155;SDS011;32908;52.344;16.858;2023-05-16T03:55:31;9.40;;;7.30;;
47155;SDS011;32908;52.344;16.858;2023-05-16T03:58:00;9.00;;;7.60;;
47155;SDS011;32908;52.344;16.858;2023-05-16T04:00:28;8.60;;;7.70;;
47155;SDS011;32908;52.344;16.858;2023-05-16T04:02:56;8.50;;;7.70;;
47155;SDS011;32908;52.344;16.858;2023-05-16T04:05:24;10.90;;;7.60;;
47155;SDS011;32908;52.344;16.858;2023-05-16T04:07:52;9.50;;;7.70;;
47155;SDS011;32908;52.344;16.858;2023-05-16T04:10:20;9.60;;;8.50;;
47155;SDS011;32908;52.344;16.858;2023-05-16T04:12:48;8.00;;;7.20;;
47155;SDS011;32908;52.344;16.858;2023-05-16T04:15:17;8.80;;;7.80;;
47155;SDS011;32908;52.344;16.858;2023-05-16T04:17:46;8.40;;;7.60;;
47155;SDS011;32908;52.344;16.858;2023-05-16T04:20:14;8.80;;;7.70;;
47155;SDS011;32908;52.344;16.858;2023-05-16T04:22:42;10.80;;;8.30;;
47155;SDS011;32908;52.344;16.858;2023-05-16T04:25:10;8.60;;;7.70;;
47155;SDS011;32908;52.344;16.858;2023-05-16T04:27:39;8.90;;;7.80;;
47155;SDS011;32908;52.344;16.858;2023-05-16T04:30:08;8.00;;;6.90;;
47155;SDS011;32908;52.344;16.858;2023-05-16T04:32:39;8.70;;;7.80;;
47155;SDS011;32908;52.344;16.858;2023-05-16T04:35:08;9.50;;;8.50;;
47155;SDS011;32908;52.344;16.858;2023-05-16T04:37:36;8.30;;;7.50;;
47155;SDS011;32908;52.344;16.858;2023-05-16T04:40:05;11.20;;;8.60;;
47155;SDS011;32908;52.344;16.858;2023-05-16T04:42:35;10.40;;;8.40;;
47155;SDS011;32908;52.344;16.858;2023-05-16T04:45:03;10.80;;;7.80;;
47155;SDS011;32908;52.344;16.858;2023-05-16T04:47:36;8.60;;;7.80;;
47155;SDS011;32908;52.344;16.858;2023-05-16T04:50:05;8.60;;;7.70;;
47155;SDS011;32908;52.344;16.858;2023-05-16T04:52:34;8.80;;;7.90;;
47155;SDS011;32908;52.344;16.858;2023-05-16T04:55:04;8.80;;;7.80;;
47155;SDS011;32908;52.344;16.858;2023-05-16T04:57:33;8.60;;;7.90;;
47155;SDS011;32908;52.344;16.858;2023-05-16T05:00:01;8.60;;;7.90;;
47155;SDS011;32908;52.344;16.858;2023-05-16T05:02:32;9.20;;;8.30;;
47155;SDS011;32908;52.344;16.858;2023-05-16T05:05:00;8.80;;;7.50;;
47155;SDS011;32908;52.344;16.858;2023-05-16T05:07:28;8.80;;;7.70;;
47155;SDS011;32908;52.344;16.858;2023-05-16T05:09:56;9.00;;;7.50;;
47155;SDS011;32908;52.344;16.858;2023-05-16T05:12:24;9.70;;;8.00;;
47155;SDS011;32908;52.344;16.858;2023-05-16T05:14:53;10.60;;;7.90;;
47155;SDS011;32908;52.344;16.858;2023-05-16T05:17:21;11.30;;;8.60;;
47155;SDS011;32908;52.344;16.858;2023-05-16T05:19:49;8.90;;;8.10;;
47155;SDS011;32908;52.344;16.858;2023-05-16T05:22:17;12.20;;;8.40;;
47155;SDS011;32908;52.344;16.858;2023-05-16T05:24:45;9.70;;;8.70;;
47155;SDS011;32908;52.344;16.858;2023-05-16T05:27:13;11.10;;;9.50;;
47155;SDS011;32908;52.344;16.858;2023-05-16T05:29:41;11.10;;;9.70;;
47155;SDS011;32908;52.344;16.858;2023-05-16T05:32:09;12.50;;;9.40;;
47155;SDS011;32908;52.344;16.858;2023-05-16T05:34:37;11.30;;;10.00;;
47155;SDS011;32908;52.344;16.858;2023-05-16T05:37:05;10.20;;;8.90;;
47155;SDS011;32908;52.344;16.858;2023-05-16T05:39:33;11.60;;;9.40;;
47155;SDS011;32908;52.344;16.858;2023-05-16T05:42:01;10.90;;;8.90;;
47155;SDS011;32908;52.344;16.858;2023-05-16T05:44:29;10.50;;;9.00;;
47155;SDS011;32908;52.344;16.858;2023-05-16T05:46:58;10.50;;;9.50;;
47155;SDS011;32908;52.344;16.858;2023-05-16T05:49:26;9.80;;;8.70;;
47155;SDS011;32908;52.344;16.858;2023-05-16T05:51:54;10.20;;;9.20;;
47155;SDS011;32908;52.344;16.858;2023-05-16T05:54:22;9.70;;;8.80;;
47155;SDS011;32908;52.344;16.858;2023-05-16T05:56:50;9.10;;;8.20;;
47155;SDS011;32908;52.344;16.858;2023-05-16T05:59:18;8.90;;;8.00;;
47155;SDS011;32908;52.344;16.858;2023-05-16T06:01:46;9.80;;;8.80;;
47155;SDS011;32908;52.344;16.858;2023-05-16T06:04:17;8.70;;;7.80;;
47155;SDS011;32908;52.344;16.858;2023-05-16T06:06:46;9.40;;;8.00;;
47155;SDS011;32908;52.344;16.858;2023-05-16T06:09:14;10.20;;;7.50;;
47155;SDS011;32908;52.344;16.858;2023-05-16T06:11:42;8.50;;;7.50;;
47155;SDS011;32908;52.344;16.858;2023-05-16T06:14:11;8.50;;;7.60;;
47155;SDS011;32908;52.344;16.858;2023-05-16T06:16:39;17.60;;;15.90;;
47155;SDS011;32908;52.344;16.858;2023-05-16T06:19:07;9.00;;;8.10;;
47155;SDS011;32908;52.344;16.858;2023-05-16T06:21:35;8.50;;;7.60;;
47155;SDS011;32908;52.344;16.858;2023-05-16T06:24:03;8.70;;;7.50;;
47155;SDS011;32908;52.344;16.858;2023-05-16T06:26:32;7.50;;;6.70;;
47155;SDS011;32908;52.344;16.858;2023-05-16T06:29:00;7.60;;;6.80;;
47155;SDS011;32908;52.344;16.858;2023-05-16T06:31:28;8.70;;;6.80;;
47155;SDS011;32908;52.344;16.858;2023-05-16T06:33:56;7.60;;;6.70;;
47155;SDS011;32908;52.344;16.858;2023-05-16T06:36:24;7.20;;;6.50;;
47155;SDS011;32908;52.344;16.858;2023-05-16T06:38:52;7.50;;;6.80;;
47155;SDS011;32908;52.344;16.858;2023-05-16T06:41:20;7.80;;;6.30;;
47155;SDS011;32908;52.344;16.858;2023-05-16T06:43:48;6.50;;;5.90;;
47155;SDS011;32908;52.344;16.858;2023-05-16T06:46:16;7.10;;;6.20;;
47155;SDS011;32908;52.344;16.858;2023-05-16T06:48:43;9.30;;;6.60;;
47155;SDS011;32908;52.344;16.858;2023-05-16T06:51:11;7.20;;;5.90;;
47155;SDS011;32908;52.344;16.858;2023-05-16T06:53:39;6.90;;;6.20;;
47155;SDS011;32908;52.344;16.858;2023-05-16T06:56:07;8.30;;;6.50;;
47155;SDS011;32908;52.344;16.858;2023-05-16T06:58:35;6.80;;;6.10;;
47155;SDS011;32908;52.344;16.858;2023-05-16T07:01:03;7.00;;;6.30;;
47155;SDS011;32908;52.344;16.858;2023-05-16T07:03:31;10.50;;;6.20;;
47155;SDS011;32908;52.344;16.858;2023-05-16T07:05:59;8.30;;;5.70;;
47155;SDS011;32908;52.344;16.858;2023-05-16T07:08:26;6.30;;;5.70;;
47155;SDS011;32908;52.344;16.858;2023-05-16T07:10:54;6.10;;;5.60;;
47155;SDS011;32908;52.344;16.858;2023-05-16T07:13:22;6.50;;;5.70;;
47155;SDS011;32908;52.344;16.858;2023-05-16T07:15:50;7.40;;;5.10;;
47155;SDS011;32908;52.344;16.858;2023-05-16T07:59:08;4.70;;;4.20;;
47155;SDS011;32908;52.344;16.858;2023-05-16T08:01:36;6.10;;;4.70;;
47155;SDS011;32908;52.344;16.858;2023-05-16T08:04:05;7.10;;;4.50;;
47155;SDS011;32908;52.344;16.858;2023-05-16T08:06:33;5.50;;;4.60;;
47155;SDS011;32908;52.344;16.858;2023-05-16T08:09:02;8.70;;;4.90;;
47155;SDS011;32908;52.344;16.858;2023-05-16T08:11:30;7.20;;;5.50;;
47155;SDS011;32908;52.344;16.858;2023-05-16T08:13:58;6.10;;;5.00;;
47155;SDS011;32908;52.344;16.858;2023-05-16T08:16:26;4.90;;;4.50;;
47155;SDS011;32908;52.344;16.858;2023-05-16T08:18:53;6.00;;;4.70;;
47155;SDS011;32908;52.344;16.858;2023-05-16T08:21:21;8.20;;;4.70;;
47155;SDS011;32908;52.344;16.858;2023-05-16T08:23:49;5.20;;;4.70;;
47155;SDS011;32908;52.344;16.858;2023-05-16T08:26:17;5.50;;;4.30;;
47155;SDS011;32908;52.344;16.858;2023-05-16T08:28:47;5.30;;;4.30;;
47155;SDS011;32908;52.344;16.858;2023-05-16T08:31:15;5.80;;;4.40;;
47155;SDS011;32908;52.344;16.858;2023-05-16T08:33:43;7.70;;;4.50;;
47155;SDS011;32908;52.344;16.858;2023-05-16T08:36:11;5.00;;;4.00;;
47155;SDS011;32908;52.344;16.858;2023-05-16T08:38:41;7.30;;;4.20;;
47155;SDS011;32908;52.344;16.858;2023-05-16T08:41:08;7.30;;;3.90;;
47155;SDS011;32908;52.344;16.858;2023-05-16T08:43:37;5.10;;;3.90;;
47155;SDS011;32908;52.344;16.858;2023-05-16T08:46:06;5.00;;;3.90;;
47155;SDS011;32908;52.344;16.858;2023-05-16T08:48:34;4.50;;;4.10;;
47155;SDS011;32908;52.344;16.858;2023-05-16T08:51:03;5.30;;;4.50;;
47155;SDS011;32908;52.344;16.858;2023-05-16T08:53:36;5.40;;;4.00;;
47155;SDS011;32908;52.344;16.858;2023-05-16T08:56:07;5.10;;;4.50;;
47155;SDS011;32908;52.344;16.858;2023-05-16T08:58:35;4.50;;;4.10;;
47155;SDS011;32908;52.344;16.858;2023-05-16T09:01:04;4.30;;;3.90;;
47155;SDS011;32908;52.344;16.858;2023-05-16T09:03:34;4.00;;;3.60;;
47155;SDS011;32908;52.344;16.858;2023-05-16T09:06:02;6.00;;;4.30;;
47155;SDS011;32908;52.344;16.858;2023-05-16T09:08:31;5.50;;;4.00;;
47155;SDS011;32908;52.344;16.858;2023-05-16T09:11:00;4.80;;;4.20;;
47155;SDS011;32908;52.344;16.858;2023-05-16T09:13:28;5.90;;;4.30;;
47155;SDS011;32908;52.344;16.858;2023-05-16T09:16:08;4.70;;;3.40;;
47155;SDS011;32908;52.344;16.858;2023-05-16T09:18:37;4.10;;;3.60;;
47155;SDS011;32908;52.344;16.858;2023-05-16T09:21:06;9.30;;;3.90;;
47155;SDS011;32908;52.344;16.858;2023-05-16T09:23:34;4.60;;;3.90;;
47155;SDS011;32908;52.344;16.858;2023-05-16T09:26:02;4.30;;;3.90;;
47155;SDS011;32908;52.344;16.858;2023-05-16T09:28:30;5.80;;;3.90;;
47155;SDS011;32908;52.344;16.858;2023-05-16T09:30:58;8.10;;;3.80;;
47155;SDS011;32908;52.344;16.858;2023-05-16T09:33:27;7.00;;;3.70;;
47155;SDS011;32908;52.344;16.858;2023-05-16T09:35:56;4.20;;;3.60;;
47155;SDS011;32908;52.344;16.858;2023-05-16T09:38:25;6.30;;;3.80;;
47155;SDS011;32908;52.344;16.858;2023-05-16T09:40:54;5.30;;;3.40;;
47155;SDS011;32908;52.344;16.858;2023-05-16T09:43:23;6.40;;;3.70;;
47155;SDS011;32908;52.344;16.858;2023-05-16T09:45:52;7.70;;;4.30;;
47155;SDS011;32908;52.344;16.858;2023-05-16T09:48:20;5.00;;;4.10;;
47155;SDS011;32908;52.344;16.858;2023-05-16T09:50:49;4.60;;;3.80;;
47155;SDS011;32908;52.344;16.858;2023-05-16T09:53:24;5.80;;;3.60;;
47155;SDS011;32908;52.344;16.858;2023-05-16T09:55:58;4.50;;;3.70;;
47155;SDS011;32908;52.344;16.858;2023-05-16T09:58:30;4.20;;;3.40;;
47155;SDS011;32908;52.344;16.858;2023-05-16T10:00:59;7.90;;;3.50;;
47155;SDS011;32908;52.344;16.858;2023-05-16T10:03:27;6.80;;;3.40;;
47155;SDS011;32908;52.344;16.858;2023-05-16T10:05:56;4.90;;;3.80;;
47155;SDS011;32908;52.344;16.858;2023-05-16T10:08:24;5.00;;;3.70;;
47155;SDS011;32908;52.344;16.858;2023-05-16T10:10:53;5.30;;;3.60;;
47155;SDS011;32908;52.344;16.858;2023-05-16T10:13:22;5.50;;;3.70;;
47155;SDS011;32908;52.344;16.858;2023-05-16T10:15:50;7.70;;;4.30;;
47155;SDS011;32908;52.344;16.858;2023-05-16T10:18:23;5.70;;;5.10;;
47155;SDS011;32908;52.344;16.858;2023-05-16T10:20:56;6.70;;;5.10;;
47155;SDS011;32908;52.344;16.858;2023-05-16T10:23:24;6.50;;;4.40;;
47155;SDS011;32908;52.344;16.858;2023-05-16T10:25:53;7.00;;;4.50;;
47155;SDS011;32908;52.344;16.858;2023-05-16T10:28:22;6.50;;;4.60;;
47155;SDS011;32908;52.344;16.858;2023-05-16T10:30:50;7.10;;;4.90;;
47155;SDS011;32908;52.344;16.858;2023-05-16T10:33:20;4.90;;;4.50;;
47155;SDS011;32908;52.344;16.858;2023-05-16T10:35:48;6.60;;;6.00;;
47155;SDS011;32908;52.344;16.858;2023-05-16T10:38:17;6.90;;;6.30;;
47155;SDS011;32908;52.344;16.858;2023-05-16T10:40:46;7.00;;;6.30;;
47155;SDS011;32908;52.344;16.858;2023-05-16T10:43:22;8.50;;;6.20;;
47155;SDS011;32908;52.344;16.858;2023-05-16T10:45:55;6.50;;;5.80;;
47155;SDS011;32908;52.344;16.858;2023-05-16T10:48:30;9.50;;;6.50;;
47155;SDS011;32908;52.344;16.858;2023-05-16T10:50:58;7.70;;;6.60;;
47155;SDS011;32908;52.344;16.858;2023-05-16T10:53:32;9.40;;;6.90;;
47155;SDS011;32908;52.344;16.858;2023-05-16T10:56:08;10.50;;;6.00;;
47155;SDS011;32908;52.344;16.858;2023-05-16T11:01:14;7.20;;;6.30;;
47155;SDS011;32908;52.344;16.858;2023-05-16T11:04:02;8.10;;;6.30;;
47155;SDS011;32908;52.344;16.858;2023-05-16T11:06:32;6.90;;;6.20;;
47155;SDS011;32908;52.344;16.858;2023-05-16T11:09:04;6.80;;;5.80;;
47155;SDS011;32908;52.344;16.858;2023-05-16T11:11:38;7.00;;;6.30;;
47155;SDS011;32908;52.344;16.858;2023-05-16T11:14:07;7.30;;;5.70;;
47155;SDS011;32908;52.344;16.858;2023-05-16T11:16:35;9.30;;;6.30;;
47155;SDS011;32908;52.344;16.858;2023-05-16T11:19:06;9.40;;;6.10;;
47155;SDS011;32908;52.344;16.858;2023-05-16T11:24:37;7.80;;;6.50;;
47155;SDS011;32908;52.344;16.858;2023-05-16T11:27:05;9.40;;;6.40;;
47155;SDS011;32908;52.344;16.858;2023-05-16T11:29:34;7.70;;;6.10;;
47155;SDS011;32908;52.344;16.858;2023-05-16T11:32:03;7.00;;;5.90;;
47155;SDS011;32908;52.344;16.858;2023-05-16T11:34:34;6.80;;;6.20;;
47155;SDS011;32908;52.344;16.858;2023-05-16T11:37:03;6.70;;;5.70;;
47155;SDS011;32908;52.344;16.858;2023-05-16T11:39:31;8.00;;;5.80;;
47155;SDS011;32908;52.344;16.858;2023-05-16T11:42:13;8.30;;;5.20;;
47155;SDS011;32908;52.344;16.858;2023-05-16T11:44:43;6.70;;;5.20;;
47155;SDS011;32908;52.344;16.858;2023-05-16T11:47:11;6.00;;;5.30;;
47155;SDS011;32908;52.344;16.858;2023-05-16T11:49:39;7.60;;;5.80;;
47155;SDS011;32908;52.344;16.858;2023-05-16T11:52:07;6.90;;;6.10;;
47155;SDS011;32908;52.344;16.858;2023-05-16T11:54:36;7.20;;;6.50;;
47155;SDS011;32908;52.344;16.858;2023-05-16T11:57:04;8.80;;;7.10;;
47155;SDS011;32908;52.344;16.858;2023-05-16T11:59:32;8.60;;;7.70;;
47155;SDS011;32908;52.344;16.858;2023-05-16T12:02:02;8.10;;;7.30;;
47155;SDS011;32908;52.344;16.858;2023-05-16T12:04:31;8.90;;;8.10;;
47155;SDS011;32908;52.344;16.858;2023-05-16T12:06:59;8.60;;;7.70;;
47155;SDS011;32908;52.344;16.858;2023-05-16T12:09:28;9.70;;;8.30;;
47155;SDS011;32908;52.344;16.858;2023-05-16T12:11:56;9.50;;;8.60;;
47155;SDS011;32908;52.344;16.858;2023-05-16T12:14:24;11.50;;;9.10;;
47155;SDS011;32908;52.344;16.858;2023-05-16T12:16:52;10.60;;;9.30;;
47155;SDS011;32908;52.344;16.858;2023-05-16T12:19:20;14.40;;;9.00;;
47155;SDS011;32908;52.344;16.858;2023-05-16T12:21:51;13.90;;;8.20;;
47155;SDS011;32908;52.344;16.858;2023-05-16T12:24:20;9.50;;;8.60;;
47155;SDS011;32908;52.344;16.858;2023-05-16T12:26:48;11.60;;;8.60;;
47155;SDS011;32908;52.344;16.858;2023-05-16T12:29:16;9.90;;;8.90;;
47155;SDS011;32908;52.344;16.858;2023-05-16T12:31:44;9.70;;;8.30;;
47155;SDS011;32908;52.344;16.858;2023-05-16T12:34:16;12.10;;;8.50;;
47155;SDS011;32908;52.344;16.858;2023-05-16T12:36:50;12.30;;;8.50;;
47155;SDS011;32908;52.344;16.858;2023-05-16T12:39:19;9.50;;;8.40;;
47155;SDS011;32908;52.344;16.858;2023-05-16T12:41:48;10.20;;;9.00;;
47155;SDS011;32908;52.344;16.858;2023-05-16T12:44:16;10.90;;;8.40;;
47155;SDS011;32908;52.344;16.858;2023-05-16T12:46:45;12.10;;;8.40;;
47155;SDS011;32908;52.344;16.858;2023-05-16T12:49:15;13.30;;;8.40;;
47155;SDS011;32908;52.344;16.858;2023-05-16T12:51:48;8.90;;;8.00;;
47155;SDS011;32908;52.344;16.858;2023-05-16T12:54:17;14.60;;;9.00;;
47155;SDS011;32908;52.344;16.858;2023-05-16T12:56:45;13.10;;;8.70;;
47155;SDS011;32908;52.344;16.858;2023-05-16T12:59:13;10.40;;;8.70;;
47155;SDS011;32908;52.344;16.858;2023-05-16T13:01:42;10.30;;;8.70;;
47155;SDS011;32908;52.344;16.858;2023-05-16T13:04:11;10.10;;;8.30;;
47155;SDS011;32908;52.344;16.858;2023-05-16T13:06:43;12.60;;;9.30;;
47155;SDS011;32908;52.344;16.858;2023-05-16T13:09:11;13.40;;;8.90;;
47155;SDS011;32908;52.344;16.858;2023-05-16T13:11:40;11.60;;;9.50;;
47155;SDS011;32908;52.344;16.858;2023-05-16T13:14:08;11.70;;;9.30;;
47155;SDS011;32908;52.344;16.858;2023-05-16T13:16:37;11.30;;;9.50;;
47155;SDS011;32908;52.344;16.858;2023-05-16T13:19:05;11.00;;;9.90;;
47155;SDS011;32908;52.344;16.858;2023-05-16T13:21:33;12.70;;;10.00;;
47155;SDS011;32908;52.344;16.858;2023-05-16T13:24:01;11.30;;;10.20;;
47155;SDS011;32908;52.344;16.858;2023-05-16T13:26:29;15.90;;;10.40;;
47155;SDS011;32908;52.344;16.858;2023-05-16T13:28:57;11.10;;;10.00;;
47155;SDS011;32908;52.344;16.858;2023-05-16T13:31:27;12.50;;;10.20;;
47155;SDS011;32908;52.344;16.858;2023-05-16T13:33:55;10.70;;;9.60;;
47155;SDS011;32908;52.344;16.858;2023-05-16T13:36:24;10.30;;;9.00;;
47155;SDS011;32908;52.344;16.858;2023-05-16T13:38:52;10.30;;;9.30;;
47155;SDS011;32908;52.344;16.858;2023-05-16T13:41:20;13.30;;;9.10;;
47155;SDS011;32908;52.344;16.858;2023-05-16T13:43:48;13.40;;;10.10;;
47155;SDS011;32908;52.344;16.858;2023-05-16T13:46:16;11.20;;;9.00;;
47155;SDS011;32908;52.344;16.858;2023-05-16T13:48:44;11.20;;;7.70;;
47155;SDS011;32908;52.344;16.858;2023-05-16T13:51:12;10.90;;;9.80;;
47155;SDS011;32908;52.344;16.858;2023-05-16T13:53:40;10.70;;;9.60;;
47155;SDS011;32908;52.344;16.858;2023-05-16T13:56:08;13.80;;;10.20;;
47155;SDS011;32908;52.344;16.858;2023-05-16T13:58:36;14.90;;;11.80;;
47155;SDS011;32908;52.344;16.858;2023-05-16T14:01:04;11.70;;;10.30;;
47155;SDS011;32908;52.344;16.858;2023-05-16T14:03:32;14.50;;;11.10;;
47155;SDS011;32908;52.344;16.858;2023-05-16T14:06:01;14.20;;;10.70;;
47155;SDS011;32908;52.344;16.858;2023-05-16T14:08:30;16.00;;;10.50;;
47155;SDS011;32908;52.344;16.858;2023-05-16T14:10:58;12.40;;;9.80;;
47155;SDS011;32908;52.344;16.858;2023-05-16T14:13:26;16.10;;;11.30;;
47155;SDS011;32908;52.344;16.858;2023-05-16T14:15:54;15.00;;;11.00;;
47155;SDS011;32908;52.344;16.858;2023-05-16T14:18:22;17.10;;;11.40;;
47155;SDS011;32908;52.344;16.858;2023-05-16T14:20:50;14.30;;;11.70;;
47155;SDS011;32908;52.344;16.858;2023-05-16T14:23:19;14.00;;;11.40;;
47155;SDS011;32908;52.344;16.858;2023-05-16T14:25:47;13.70;;;10.80;;
47155;SDS011;32908;52.344;16.858;2023-05-16T14:28:15;16.00;;;11.80;;
47155;SDS011;32908;52.344;16.858;2023-05-16T14:30:43;15.10;;;10.60;;
47155;SDS011;32908;52.344;16.858;2023-05-16T14:33:11;14.10;;;12.10;;
47155;SDS011;32908;52.344;16.858;2023-05-16T14:35:39;20.80;;;12.50;;
47155;SDS011;32908;52.344;16.858;2023-05-16T14:38:07;14.80;;;12.30;;
47155;SDS011;32908;52.344;16.858;2023-05-16T14:40:35;16.00;;;12.50;;
47155;SDS011;32908;52.344;16.858;2023-05-16T14:43:03;15.40;;;12.50;;
47155;SDS011;32908;52.344;16.858;2023-05-16T14:45:31;14.90;;;13.30;;
47155;SDS011;32908;52.344;16.858;2023-05-16T14:47:58;17.50;;;13.00;;
47155;SDS011;32908;52.344;16.858;2023-05-16T14:50:27;16.40;;;12.50;;
47155;SDS011;32908;52.344;16.858;2023-05-16T14:52:55;19.40;;;12.40;;
47155;SDS011;32908;52.344;16.858;2023-05-16T14:55:23;17.00;;;12.40;;
47155;SDS011;32908;52.344;16.858;2023-05-16T14:57:51;18.20;;;12.30;;
47155;SDS011;32908;52.344;16.858;2023-05-16T15:00:21;15.40;;;12.20;;
47155;SDS011;32908;52.344;16.858;2023-05-16T15:02:50;15.90;;;13.30;;
47155;SDS011;32908;52.344;16.858;2023-05-16T15:05:18;16.00;;;12.00;;
47155;SDS011;32908;52.344;16.858;2023-05-16T15:07:46;17.00;;;11.90;;
47155;SDS011;32908;52.344;16.858;2023-05-16T15:10:15;16.60;;;11.90;;
47155;SDS011;32908;52.344;16.858;2023-05-16T15:12:43;13.40;;;11.60;;
47155;SDS011;32908;52.344;16.858;2023-05-16T15:15:11;15.40;;;11.10;;
47155;SDS011;32908;52.344;16.858;2023-05-16T15:17:39;16.50;;;11.40;;
47155;SDS011;32908;52.344;16.858;2023-05-16T15:20:09;13.70;;;10.30;;
47155;SDS011;32908;52.344;16.858;2023-05-16T15:22:38;13.80;;;11.70;;
47155;SDS011;32908;52.344;16.858;2023-05-16T15:25:07;15.00;;;12.50;;